Weather Data

Pearl Creek Farm: 8878 N Farm Road 75, Walnut Grove MO 65770

<== Previous Day (Wednesday 20 Apr 2016) | Next Day (Friday 22 Apr 2016) ==>

Summary Precipitation Data For Thursday 21 April 2016

ElementValueUnits
Precipitation0.01"
Notes(none)
SourcePearl Creek Farm

Summary Temperature Data For Thursday 21 April 2016

ElementValueUnits
High Temperature70 oF
Low Temperature47 oF
Average Temperature60 oF
High Humidity93 %
Low Humidity42 %
Average Humidity66 %
SourceSpringfield-Branson National Airport (SGF)

Detail Temperature Data For Thursday 21 April 2016

Date / TimeTemp (F)RH (%)Dew Pt (F)Report Date / TimeSource
2016-04-21 00:52:00 47 90 44.0 2017-12-29 17:00:26.17417 Springfield-Branson National Airport (SGF)
2016-04-21 01:52:00 48 89 45.0 2017-12-29 17:00:26.17417 Springfield-Branson National Airport (SGF)
2016-04-21 02:52:00 48 89 45.0 2017-12-29 17:00:26.17417 Springfield-Branson National Airport (SGF)
2016-04-21 03:52:00 47 93 45.0 2017-12-29 17:00:26.17417 Springfield-Branson National Airport (SGF)
2016-04-21 04:52:00 50 86 46.0 2017-12-29 17:00:26.17417 Springfield-Branson National Airport (SGF)
2016-04-21 05:52:00 54 83 49.0 2017-12-29 17:00:26.17417 Springfield-Branson National Airport (SGF)
2016-04-21 06:52:00 53 89 50.0 2017-12-29 17:00:26.17417 Springfield-Branson National Airport (SGF)
2016-04-21 07:52:00 59 72 50.0 2017-12-29 17:00:26.17417 Springfield-Branson National Airport (SGF)
2016-04-21 08:52:00 63 60 49.0 2017-12-29 17:00:26.17417 Springfield-Branson National Airport (SGF)
2016-04-21 09:52:00 65 56 49.0 2017-12-29 17:00:26.17417 Springfield-Branson National Airport (SGF)
2016-04-21 10:52:00 67 47 46.0 2017-12-29 17:00:26.17417 Springfield-Branson National Airport (SGF)
2016-04-21 11:52:00 69 44 46.0 2017-12-29 17:00:26.17417 Springfield-Branson National Airport (SGF)
2016-04-21 12:52:00 69 42 45.0 2017-12-29 17:00:26.17417 Springfield-Branson National Airport (SGF)
2016-04-21 13:52:00 70 44 47.0 2017-12-29 17:00:26.17417 Springfield-Branson National Airport (SGF)
2016-04-21 14:52:00 70 44 47.0 2017-12-29 17:00:26.17417 Springfield-Branson National Airport (SGF)
2016-04-21 15:52:00 69 45 47.0 2017-12-29 17:00:26.17417 Springfield-Branson National Airport (SGF)
2016-04-21 16:52:00 66 50 47.0 2017-12-29 17:00:26.17417 Springfield-Branson National Airport (SGF)
2016-04-21 17:52:00 65 52 47.0 2017-12-29 17:00:26.17417 Springfield-Branson National Airport (SGF)
2016-04-21 18:52:00 64 54 47.0 2017-12-29 17:00:26.17417 Springfield-Branson National Airport (SGF)
2016-04-21 19:52:00 62 58 47.0 2017-12-29 17:00:26.17417 Springfield-Branson National Airport (SGF)
2016-04-21 20:52:00 60 62 47.0 2017-12-29 17:00:26.17417 Springfield-Branson National Airport (SGF)
2016-04-21 21:52:00 58 70 48.0 2017-12-29 17:00:26.17417 Springfield-Branson National Airport (SGF)
2016-04-21 22:52:00 56 75 48.0 2017-12-29 17:00:26.17417 Springfield-Branson National Airport (SGF)
2016-04-21 23:52:00 50 80 44.0 2017-12-29 17:00:26.17417 Springfield-Branson National Airport (SGF)

A total of 24 rows are displayed.